Time;durP1;ratioP1;P1;durP2;ratioP2;P2;SDS_P1;SDS_P2;PMS_P1;PMS_P2;Temp;Humidity;BMP_temperature;BMP_pressure;BME280_temperature;BME280_humidity;BME280_pressure;Samples;Min_cycle;Max_cycle;Signal;HPM_P1;HPM_P2
2021/10/22 00:00:15;;;;;;;;;;;;;;;15.51;69.49;101056.38;1048715;28;674;-57
2021/10/22 00:01:05;;;;;;;;;;;;;;;15.51;69.53;101050.16;1048990;28;641;-57
2021/10/22 00:01:56;;;;;;;;;;;;;;;15.52;69.00;101046.47;1049921;28;680;-57
2021/10/22 00:02:46;;;;;;;;;;;;;;;15.53;69.01;101054.41;1048866;28;687;-58
2021/10/22 00:03:36;;;;;;;;;;;;;;;15.52;69.22;101052.72;1049474;28;712;-57
2021/10/22 00:04:27;;;;;;;;;;;;;;;15.51;69.26;101045.63;1048572;28;809;-57
2021/10/22 00:05:17;;;;;;;;;;;;;;;15.50;69.61;101043.91;1048940;28;649;-57
2021/10/22 00:06:08;;;;;;;;;;;;;;;15.50;69.19;101043.06;1049924;28;760;-57
2021/10/22 00:06:58;;;;;;;;;;;;;;;15.50;68.87;101048.44;1048798;28;771;-57
2021/10/22 00:07:49;;;;;;;;;;;;;;;15.50;69.13;101048.44;1048949;28;921;-58
2021/10/22 00:08:39;;;;;;;;;;;;;;;15.49;69.58;101042.22;1048748;28;751;-58
2021/10/22 00:09:29;;;;;;;;;;;;;;;15.49;69.41;101046.72;1048729;28;769;-57
2021/10/22 00:10:20;;;;;;;;;;;;;;;15.48;69.42;101045.88;1048998;28;645;-57
2021/10/22 00:11:11;;;;;;;;;;;;;;;15.49;68.91;101054.78;1050107;28;1945;-57
2021/10/22 00:12:01;;;;;;;;;;;;;;;15.49;69.07;101046.72;1045083;28;727;-58
2021/10/22 00:12:52;;;;;;;;;;;;;;;15.48;69.60;101048.56;1045420;28;865;-57
2021/10/22 00:13:42;;;;;;;;;;;;;;;15.48;69.48;101053.94;1045016;28;1889;-57
2021/10/22 00:14:32;;;;;;;;;;;;;;;15.47;69.16;101049.53;1045182;28;680;-57
2021/10/22 00:15:23;;;;;;;;;;;;;;;15.48;69.23;101051.25;1045614;28;788;-57
2021/10/22 00:16:13;;;;;;;;;;;;;;;15.48;69.26;101042.34;1045259;28;613;-57
2021/10/22 00:17:04;;;;;;;;;;;;;;;15.47;69.83;101046.84;1045755;28;732;-57
2021/10/22 00:17:54;;;;;;;;;;;;;;;15.46;69.26;101038.91;1045177;28;641;-57
2021/10/22 00:18:44;;;;;;;;;;;;;;;15.47;69.41;101046.84;1045321;28;638;-57
2021/10/22 00:19:35;;;;;;;;;;;;;;;15.46;69.29;101047.84;1047173;28;1927;-57
2021/10/22 00:20:26;;;;;;;;;;;;;;;15.45;68.94;101043.44;1048876;28;640;-57
2021/10/22 00:21:16;;;;;;;;;;;;;;;15.46;69.50;101047.84;1048609;28;985;-57
2021/10/22 00:22:07;;;;;;;;;;;;;;;15.46;69.16;101041.59;1048646;28;617;-57
2021/10/22 00:22:57;;;;;;;;;;;;;;;15.45;69.22;101045.28;1048699;28;934;-57
2021/10/22 00:23:48;;;;;;;;;;;;;;;15.44;68.99;101044.41;1049049;28;906;-57
2021/10/22 00:24:38;;;;;;;;;;;;;;;15.42;69.20;101046.38;1048701;28;886;-57
2021/10/22 00:25:29;;;;;;;;;;;;;;;15.43;69.02;101042.72;1048442;28;747;-57
2021/10/22 00:26:19;;;;;;;;;;;;;;;15.43;69.12;101044.53;1048594;28;1338;-58
2021/10/22 00:27:11;;;;;;;;;;;;;;;15.43;69.46;101047.22;1048910;28;634;-57
2021/10/22 00:28:01;;;;;;;;;;;;;;;15.44;69.32;101043.56;1048645;28;707;-57
2021/10/22 00:28:51;;;;;;;;;;;;;;;15.43;69.40;101047.22;1048887;28;637;-57
2021/10/22 00:29:42;;;;;;;;;;;;;;;15.42;68.92;101046.38;1048535;28;711;-58
2021/10/22 00:30:32;;;;;;;;;;;;;;;15.42;69.33;101042.81;1048694;28;635;-57
2021/10/22 00:31:23;;;;;;;;;;;;;;;15.41;68.93;101039.28;1048465;28;621;-57
2021/10/22 00:32:14;;;;;;;;;;;;;;;15.40;69.08;101045.66;1048697;28;661;-57
2021/10/22 00:33:05;;;;;;;;;;;;;;;15.39;69.08;101041.28;1048994;28;633;-57
2021/10/22 00:33:55;;;;;;;;;;;;;;;15.40;69.30;101042.97;1048504;28;843;-58
2021/10/22 00:34:45;;;;;;;;;;;;;;;15.40;69.09;101047.50;1048739;28;654;-57
2021/10/22 00:35:36;;;;;;;;;;;;;;;15.38;68.89;101047.63;1048473;28;630;-57
2021/10/22 00:36:26;;;;;;;;;;;;;;;15.40;68.83;101048.34;1052198;28;1673;-57
2021/10/22 00:37:17;;;;;;;;;;;;;;;15.40;69.06;101047.50;1051809;28;1498;-57
2021/10/22 00:38:08;;;;;;;;;;;;;;;15.39;69.31;101051.16;1048439;28;1027;-58
2021/10/22 00:38:58;;;;;;;;;;;;;;;15.38;69.29;101044.09;1050509;28;624;-57
2021/10/22 00:39:49;;;;;;;;;;;;;;;15.38;69.22;101044.09;1048891;28;625;-57
2021/10/22 00:40:39;;;;;;;;;;;;;;;15.37;69.40;101051.28;1049293;28;653;-57
2021/10/22 00:41:31;;;;;;;;;;;;;;;15.37;69.18;101048.59;1048772;28;717;-57
2021/10/22 00:42:22;;;;;;;;;;;;;;;15.36;69.34;101049.56;1049645;28;897;-57
2021/10/22 00:43:12;;;;;;;;;;;;;;;15.36;69.39;101046.91;1048690;28;617;-57
2021/10/22 00:44:03;;;;;;;;;;;;;;;15.35;69.42;101050.56;1048959;28;687;-57
2021/10/22 00:44:53;;;;;;;;;;;;;;;15.35;69.61;101050.56;1048547;28;656;-58
2021/10/22 00:45:44;;;;;;;;;;;;;;;15.35;69.33;101044.31;1048828;28;753;-58
2021/10/22 00:46:37;;;;;;;;;;;;;;;15.35;69.51;101045.19;1048456;28;853;-58
2021/10/22 00:47:28;;;;;;;;;;;;;;;15.34;69.10;101043.47;1049043;28;2006;-58
2021/10/22 00:48:19;;;;;;;;;;;;;;;15.35;69.04;101042.50;1050212;28;844;-58
2021/10/22 00:49:09;;;;;;;;;;;;;;;15.33;69.09;101041.78;1050410;28;652;-58
2021/10/22 00:50:00;;;;;;;;;;;;;;;15.35;69.43;101044.31;1050199;28;696;-57
2021/10/22 00:50:51;;;;;;;;;;;;;;;15.33;69.38;101041.78;1050002;28;821;-58
2021/10/22 00:51:41;;;;;;;;;;;;;;;15.33;69.07;101043.59;1049857;28;653;-57
2021/10/22 00:52:32;;;;;;;;;;;;;;;15.33;69.00;101038.22;1050353;28;716;-58
2021/10/22 00:53:22;;;;;;;;;;;;;;;15.33;68.91;101041.78;1050188;28;1981;-58
2021/10/22 00:54:13;;;;;;;;;;;;;;;15.34;69.35;101039.94;1050267;28;796;-58
2021/10/22 00:55:03;;;;;;;;;;;;;;;15.32;69.36;101037.38;1050331;28;629;-58
2021/10/22 00:55:54;;;;;;;;;;;;;;;15.33;69.14;101039.09;1050400;28;793;-58
2021/10/22 00:56:44;;;;;;;;;;;;;;;15.32;68.93;101032.00;1050243;28;778;-58
2021/10/22 00:57:34;;;;;;;;;;;;;;;15.32;69.34;101036.53;1050149;28;1852;-58
2021/10/22 00:58:25;;;;;;;;;;;;;;;15.30;69.30;101036.63;1048307;28;602;-58
2021/10/22 00:59:16;;;;;;;;;;;;;;;15.30;69.14;101036.63;1048515;28;600;-58
2021/10/22 01:00:06;;;;;;;;;;;;;;;15.30;69.15;101036.63;1048664;28;770;-58
2021/10/22 01:00:57;;;;;;;;;;;;;;;15.30;69.00;101031.28;1048759;28;853;-58
2021/10/22 01:01:47;;;;;;;;;;;;;;;15.29;69.12;101034.94;1048788;28;637;-58
2021/10/22 01:02:38;;;;;;;;;;;;;;;15.29;69.22;101032.25;1048380;28;677;-58
2021/10/22 01:03:28;;;;;;;;;;;;;;;15.28;69.62;101031.41;1048546;28;843;-58
2021/10/22 01:04:19;;;;;;;;;;;;;;;15.28;69.41;101027.84;1048390;28;689;-58
2021/10/22 01:05:12;;;;;;;;;;;;;;;15.28;69.46;101033.22;1048487;28;744;-58
2021/10/22 01:06:03;;;;;;;;;;;;;;;15.27;69.58;101032.38;1048745;28;726;-58
2021/10/22 01:06:53;;;;;;;;;;;;;;;15.28;69.46;101027.84;1048572;28;689;-58
2021/10/22 01:07:43;;;;;;;;;;;;;;;15.28;68.94;101033.22;1048464;28;1845;-58
2021/10/22 01:08:34;;;;;;;;;;;;;;;15.27;69.50;101032.38;1050216;28;637;-58
2021/10/22 01:09:25;;;;;;;;;;;;;;;15.27;69.29;101032.38;1049164;28;2145;-58
2021/10/22 01:10:15;;;;;;;;;;;;;;;15.27;69.14;101020.78;1045534;28;626;-58
2021/10/22 01:11:06;;;;;;;;;;;;;;;15.27;69.17;101024.31;1045205;28;704;-58
2021/10/22 01:11:56;;;;;;;;;;;;;;;15.27;69.49;101027.00;1044922;28;842;-58
2021/10/22 01:12:46;;;;;;;;;;;;;;;15.26;69.08;101029.81;1045599;28;676;-58
2021/10/22 01:13:38;;;;;;;;;;;;;;;15.25;69.41;101026.25;1045321;28;1949;-58
2021/10/22 01:14:28;;;;;;;;;;;;;;;15.25;69.35;101020.91;1044852;28;637;-57
2021/10/22 01:15:21;;;;;;;;;;;;;;;15.25;69.35;101023.59;1045095;28;731;-58
2021/10/22 01:16:11;;;;;;;;;;;;;;;15.26;69.15;101019.91;1045291;28;1798;-58
2021/10/22 01:17:02;;;;;;;;;;;;;;;15.24;69.36;101019.19;1045614;28;610;-58
2021/10/22 01:17:52;;;;;;;;;;;;;;;15.25;69.09;101017.38;1047735;28;1901;-58
2021/10/22 01:18:43;;;;;;;;;;;;;;;15.23;68.92;101016.63;1050350;28;701;-57
2021/10/22 01:19:33;;;;;;;;;;;;;;;15.24;68.96;101023.72;1050129;28;625;-58
2021/10/22 01:20:24;;;;;;;;;;;;;;;15.22;69.47;101013.13;1050232;28;646;-57
2021/10/22 01:21:14;;;;;;;;;;;;;;;15.22;69.45;101021.19;1050224;28;613;-58
2021/10/22 01:22:04;;;;;;;;;;;;;;;15.23;69.59;101016.63;1050209;28;633;-58
2021/10/22 01:22:55;;;;;;;;;;;;;;;15.22;68.95;101017.63;1050093;28;1013;-58
2021/10/22 01:23:45;;;;;;;;;;;;;;;15.21;68.89;101022.16;1050364;28;704;-57
2021/10/22 01:24:36;;;;;;;;;;;;;;;15.21;68.95;101018.63;1049768;28;711;-58
2021/10/22 01:25:26;;;;;;;;;;;;;;;15.22;69.11;101017.63;1049853;28;751;-57
2021/10/22 01:26:20;;;;;;;;;;;;;;;15.22;69.40;101026.53;1049709;28;1816;-57
2021/10/22 01:27:10;;;;;;;;;;;;;;;15.21;69.05;101016.78;1049605;28;2276;-57
2021/10/22 01:28:01;;;;;;;;;;;;;;;15.21;69.26;101022.16;1049077;28;1910;-57
2021/10/22 01:28:52;;;;;;;;;;;;;;;15.20;69.51;101016.91;1049167;28;653;-57
2021/10/22 01:29:42;;;;;;;;;;;;;;;15.21;69.40;101016.78;1048307;28;598;-56
2021/10/22 01:30:33;;;;;;;;;;;;;;;15.20;69.04;101023.13;1048555;28;801;-57
2021/10/22 01:31:23;;;;;;;;;;;;;;;15.21;68.95;101016.78;1048466;28;614;-58
2021/10/22 01:32:14;;;;;;;;;;;;;;;15.20;69.07;101014.22;1048575;28;928;-57
2021/10/22 01:33:04;;;;;;;;;;;;;;;15.19;69.14;101016.06;1049031;28;681;-57
2021/10/22 01:33:55;;;;;;;;;;;;;;;15.18;69.36;101013.50;1048565;28;748;-57
2021/10/22 01:34:45;;;;;;;;;;;;;;;15.17;69.16;101009.94;1048256;28;773;-57
2021/10/22 01:35:35;;;;;;;;;;;;;;;15.17;68.92;101014.47;1048498;28;733;-57
2021/10/22 01:36:26;;;;;;;;;;;;;;;15.18;69.33;101008.13;1048830;28;1613;-57
2021/10/22 01:37:17;;;;;;;;;;;;;;;15.16;69.33;101007.38;1047989;28;638;-57
2021/10/22 01:38:07;;;;;;;;;;;;;;;15.16;69.02;101012.75;1048116;28;999;-57
2021/10/22 01:38:58;;;;;;;;;;;;;;;15.17;69.43;101009.94;1048625;28;634;-57
2021/10/22 01:39:48;;;;;;;;;;;;;;;15.17;69.14;101003.72;1048401;28;646;-57
2021/10/22 01:40:38;;;;;;;;;;;;;;;15.15;69.73;101005.69;1048566;28;832;-57
2021/10/22 01:41:29;;;;;;;;;;;;;;;15.17;69.46;101003.72;1048295;28;736;-57
2021/10/22 01:42:20;;;;;;;;;;;;;;;15.15;69.13;101006.53;1048622;28;634;-57
2021/10/22 01:43:10;;;;;;;;;;;;;;;15.16;69.61;101002.03;1048270;28;662;-58
2021/10/22 01:44:01;;;;;;;;;;;;;;;15.16;69.44;101008.25;1049168;28;650;-57
2021/10/22 01:44:52;;;;;;;;;;;;;;;15.15;69.38;100994.94;1048083;28;745;-58
2021/10/22 01:45:42;;;;;;;;;;;;;;;15.13;68.89;100996.91;1048391;28;711;-57
2021/10/22 01:46:33;;;;;;;;;;;;;;;15.14;69.17;100995.91;1048302;28;1665;-57
2021/10/22 01:47:23;;;;;;;;;;;;;;;15.13;69.38;100988.84;1050058;28;718;-57
2021/10/22 01:48:14;;;;;;;;;;;;;;;15.13;69.07;100992.38;1050164;28;1023;-57
2021/10/22 01:49:04;;;;;;;;;;;;;;;15.13;69.21;100995.06;1050011;28;925;-57
2021/10/22 01:49:55;;;;;;;;;;;;;;;15.14;69.46;100995.91;1050156;28;711;-57
2021/10/22 01:50:45;;;;;;;;;;;;;;;15.13;68.96;100992.38;1049994;28;637;-57
2021/10/22 01:51:35;;;;;;;;;;;;;;;15.13;69.40;100984.31;1050075;28;802;-57
2021/10/22 01:52:26;;;;;;;;;;;;;;;15.13;69.00;100987.00;1050039;28;701;-57
2021/10/22 01:53:17;;;;;;;;;;;;;;;15.13;69.06;100983.47;1049816;28;1306;-57
2021/10/22 01:54:07;;;;;;;;;;;;;;;15.14;69.28;100982.50;1050130;28;633;-57
2021/10/22 01:54:58;;;;;;;;;;;;;;;15.11;68.88;100974.69;1050139;28;781;-57
2021/10/22 01:55:49;;;;;;;;;;;;;;;15.12;69.08;100979.09;1050054;28;670;-57
2021/10/22 01:56:40;;;;;;;;;;;;;;;15.12;69.40;100979.09;1049884;28;1631;-57
2021/10/22 01:57:30;;;;;;;;;;;;;;;15.11;68.69;100982.75;1048198;28;632;-57
2021/10/22 01:58:20;;;;;;;;;;;;;;;15.11;69.01;100978.22;1048291;28;665;-58
2021/10/22 01:59:11;;;;;;;;;;;;;;;15.11;69.14;100977.38;1048596;28;718;-58
2021/10/22 02:00:03;;;;;;;;;;;;;;;15.10;69.61;100981.03;1048390;28;672;-57
2021/10/22 02:00:53;;;;;;;;;;;;;;;15.10;69.22;100975.66;1048227;28;687;-58
2021/10/22 02:01:43;;;;;;;;;;;;;;;15.10;69.02;100981.03;1048331;28;854;-57
2021/10/22 02:02:34;;;;;;;;;;;;;;;15.09;68.92;100976.66;1048489;28;645;-57
2021/10/22 02:03:24;;;;;;;;;;;;;;;15.08;69.73;100974.94;1048211;28;754;-57
2021/10/22 02:04:15;;;;;;;;;;;;;;;15.08;69.37;100975.78;1048393;28;791;-59
2021/10/22 02:05:05;;;;;;;;;;;;;;;15.08;69.16;100977.63;1048229;28;756;-58
2021/10/22 02:05:55;;;;;;;;;;;;;;;15.08;69.70;100986.53;1044371;28;1041;-60
2021/10/22 02:06:48;;;;;;;;;;;;;;;15.08;68.97;100983.84;1044789;28;721;-57
2021/10/22 02:07:39;;;;;;;;;;;;;;;15.08;69.06;100978.47;1044527;28;847;-59
2021/10/22 02:08:29;;;;;;;;;;;;;;;15.08;69.39;100981.16;1044609;28;716;-59
2021/10/22 02:09:19;;;;;;;;;;;;;;;15.07;69.40;100975.91;1044667;28;658;-59
2021/10/22 02:10:10;;;;;;;;;;;;;;;15.06;69.10;100969.69;1044904;28;756;-60
2021/10/22 02:11:00;;;;;;;;;;;;;;;15.05;69.03;100976.03;1044757;28;680;-60
2021/10/22 02:11:51;;;;;;;;;;;;;;;15.07;69.04;100970.53;1044824;28;755;-59
2021/10/22 02:12:41;;;;;;;;;;;;;;;15.05;68.90;100977.91;1044805;28;771;-57
2021/10/22 02:13:31;;;;;;;;;;;;;;;15.05;69.11;100981.41;1044679;28;1973;-59
2021/10/22 02:14:22;;;;;;;;;;;;;;;15.06;68.98;100971.53;1044882;28;701;-60
2021/10/22 02:15:12;;;;;;;;;;;;;;;15.06;68.98;100968.84;1044747;28;772;-59
2021/10/22 02:16:03;;;;;;;;;;;;;;;15.06;68.92;100968.84;1044874;28;874;-60
2021/10/22 02:16:53;;;;;;;;;;;;;;;15.06;69.28;100968.84;1044719;28;613;-59
2021/10/22 02:17:44;;;;;;;;;;;;;;;15.05;68.97;100967.16;1044907;28;637;-59
2021/10/22 02:18:34;;;;;;;;;;;;;;;15.03;68.70;100955.69;1044682;28;894;-59
2021/10/22 02:19:25;;;;;;;;;;;;;;;15.04;68.97;100968.13;1044762;28;649;-59
2021/10/22 02:20:15;;;;;;;;;;;;;;;15.03;69.30;100958.38;1044521;28;931;-60
2021/10/22 02:21:06;;;;;;;;;;;;;;;15.03;68.94;100958.38;1044786;28;751;-59
2021/10/22 02:21:56;;;;;;;;;;;;;;;15.03;69.23;100959.22;1045329;28;677;-60
2021/10/22 02:22:46;;;;;;;;;;;;;;;15.02;69.37;100962.88;1044728;28;650;-60
2021/10/22 02:23:37;;;;;;;;;;;;;;;15.04;68.85;100960.09;1044818;28;740;-59
2021/10/22 02:24:27;;;;;;;;;;;;;;;15.03;68.85;100964.59;1044643;28;747;-58
2021/10/22 02:25:18;;;;;;;;;;;;;;;15.03;69.13;100963.75;1045233;28;724;-57
2021/10/22 02:26:08;;;;;;;;;;;;;;;15.02;69.28;100962.88;1045252;28;1292;-57
2021/10/22 02:26:59;;;;;;;;;;;;;;;15.02;69.51;100962.03;1048719;28;1701;-59
2021/10/22 02:27:49;;;;;;;;;;;;;;;15.02;69.31;100967.41;1048810;28;762;-59
2021/10/22 02:28:40;;;;;;;;;;;;;;;15.00;68.79;100970.22;1048343;28;731;-57
2021/10/22 02:29:30;;;;;;;;;;;;;;;15.01;69.24;100960.34;1048067;28;712;-60
2021/10/22 02:30:21;;;;;;;;;;;;;;;15.00;68.58;100964.00;1048296;28;673;-58
2021/10/22 02:31:11;;;;;;;;;;;;;;;14.98;69.09;100953.38;1048084;28;637;-57
2021/10/22 02:32:01;;;;;;;;;;;;;;;14.99;69.19;100955.09;1048399;28;772;-56
2021/10/22 02:32:52;;;;;;;;;;;;;;;14.98;69.13;100955.22;1048050;28;756;-59
2021/10/22 02:33:42;;;;;;;;;;;;;;;14.98;68.82;100955.22;1048084;28;1906;-59
2021/10/22 02:34:33;;;;;;;;;;;;;;;14.98;69.05;100947.16;1048458;28;703;-59
2021/10/22 02:35:23;;;;;;;;;;;;;;;14.98;69.11;100952.53;1044496;28;674;-59
2021/10/22 02:36:13;;;;;;;;;;;;;;;14.98;68.72;100944.47;1044741;28;634;-59
2021/10/22 02:37:04;;;;;;;;;;;;;;;14.98;69.26;100952.53;1044750;28;909;-59
2021/10/22 02:37:54;;;;;;;;;;;;;;;14.97;68.48;100949.00;1044498;28;1024;-59
2021/10/22 02:38:45;;;;;;;;;;;;;;;14.98;69.44;100949.84;1044744;28;681;-59
2021/10/22 02:39:36;;;;;;;;;;;;;;;14.98;68.85;100944.47;1044650;28;717;-59
2021/10/22 02:40:27;;;;;;;;;;;;;;;14.97;69.14;100953.50;1044764;28;638;-59
2021/10/22 02:41:17;;;;;;;;;;;;;;;14.97;69.14;100948.13;1044522;28;926;-58
2021/10/22 02:42:08;;;;;;;;;;;;;;;14.96;68.90;100941.06;1044796;28;746;-59
2021/10/22 02:42:58;;;;;;;;;;;;;;;14.95;69.30;100945.56;1044627;28;632;-59
2021/10/22 02:43:49;;;;;;;;;;;;;;;14.96;68.93;100947.28;1044834;28;732;-59
2021/10/22 02:44:39;;;;;;;;;;;;;;;14.96;69.33;100947.28;1044548;28;1857;-60
2021/10/22 02:45:29;;;;;;;;;;;;;;;14.94;69.14;100946.53;1048119;28;880;-59
2021/10/22 02:46:20;;;;;;;;;;;;;;;14.94;68.73;100939.34;1048473;28;701;-59
2021/10/22 02:47:10;;;;;;;;;;;;;;;14.94;69.40;100939.34;1048094;28;681;-59
2021/10/22 02:48:01;;;;;;;;;;;;;;;14.96;68.69;100938.38;1048615;28;689;-59
2021/10/22 02:48:51;;;;;;;;;;;;;;;14.94;69.28;100936.66;1049508;28;640;-59
2021/10/22 02:49:41;;;;;;;;;;;;;;;14.92;68.46;100933.25;1049891;28;835;-59
2021/10/22 02:50:32;;;;;;;;;;;;;;;14.92;68.65;100933.25;1048323;28;714;-58
2021/10/22 02:51:23;;;;;;;;;;;;;;;14.93;69.08;100932.28;1048072;28;837;-59
2021/10/22 02:52:13;;;;;;;;;;;;;;;14.91;69.17;100928.88;1048066;28;668;-59
2021/10/22 02:53:03;;;;;;;;;;;;;;;14.91;68.69;100942.28;1048075;28;1094;-59
2021/10/22 02:53:54;;;;;;;;;;;;;;;14.91;69.24;100931.53;1048315;28;1910;-59
2021/10/22 02:54:44;;;;;;;;;;;;;;;14.90;69.33;100935.22;1048128;28;1959;-58
2021/10/22 02:55:35;;;;;;;;;;;;;;;14.91;68.65;100939.59;1045659;28;689;-59
2021/10/22 02:56:25;;;;;;;;;;;;;;;14.91;68.91;100933.38;1044540;28;673;-59
2021/10/22 02:57:15;;;;;;;;;;;;;;;14.90;68.40;100929.84;1044605;28;665;-59
2021/10/22 02:58:06;;;;;;;;;;;;;;;14.90;68.92;100931.66;1044689;28;829;-59
2021/10/22 02:58:57;;;;;;;;;;;;;;;14.91;68.61;100938.75;1044602;28;677;-59
2021/10/22 02:59:47;;;;;;;;;;;;;;;14.89;68.51;100922.75;1044460;28;854;-58
2021/10/22 03:00:38;;;;;;;;;;;;;;;14.89;68.88;100925.44;1044773;28;721;-58
2021/10/22 03:01:28;;;;;;;;;;;;;;;14.88;69.16;100934.47;1044452;28;724;-59
2021/10/22 03:02:18;;;;;;;;;;;;;;;14.88;68.89;100930.94;1044665;28;883;-59
2021/10/22 03:03:09;;;;;;;;;;;;;;;14.88;68.71;100931.78;1045276;28;808;-59
2021/10/22 03:03:59;;;;;;;;;;;;;;;14.89;68.68;100930.81;1044548;28;794;-59
2021/10/22 03:04:50;;;;;;;;;;;;;;;14.87;69.19;100932.78;1045454;28;1826;-59
2021/10/22 03:05:41;;;;;;;;;;;;;;;14.88;69.11;100936.31;1048012;28;641;-59
2021/10/22 03:06:32;;;;;;;;;;;;;;;14.88;69.01;100934.47;1048783;28;792;-59
2021/10/22 03:07:22;;;;;;;;;;;;;;;14.88;69.07;100937.16;1048006;28;661;-59
2021/10/22 03:08:12;;;;;;;;;;;;;;;14.88;69.20;100937.16;1048070;28;1483;-59
2021/10/22 03:09:03;;;;;;;;;;;;;;;14.88;68.50;100938.97;1048394;28;664;-59
2021/10/22 03:09:53;;;;;;;;;;;;;;;14.87;68.24;100938.13;1048146;28;606;-59
2021/10/22 03:10:44;;;;;;;;;;;;;;;14.88;68.48;100936.31;1048363;28;590;-59
2021/10/22 03:11:34;;;;;;;;;;;;;;;14.87;68.77;100932.78;1047984;28;792;-58
2021/10/22 03:12:25;;;;;;;;;;;;;;;14.86;68.73;100936.47;1048251;28;783;-58
2021/10/22 03:13:15;;;;;;;;;;;;;;;14.85;68.56;100934.75;1047952;28;658;-59
2021/10/22 03:14:05;;;;;;;;;;;;;;;14.85;68.70;100934.75;1048700;28;1039;-59
2021/10/22 03:14:56;;;;;;;;;;;;;;;14.85;68.89;100937.44;1047986;28;1880;-59
2021/10/22 03:15:46;;;;;;;;;;;;;;;14.85;69.11;100937.44;1049857;28;708;-60
2021/10/22 03:16:37;;;;;;;;;;;;;;;14.85;68.68;100931.22;1049832;28;837;-59
2021/10/22 03:17:27;;;;;;;;;;;;;;;14.85;68.67;100934.75;1049510;28;688;-59
2021/10/22 03:18:18;;;;;;;;;;;;;;;14.84;68.94;100933.03;1049617;28;760;-59
2021/10/22 03:19:10;;;;;;;;;;;;;;;14.83;69.04;100930.47;1049914;28;637;-59
2021/10/22 03:20:01;;;;;;;;;;;;;;;14.84;68.74;100934.88;1049919;28;645;-59
2021/10/22 03:20:51;;;;;;;;;;;;;;;14.83;69.10;100925.13;1049778;28;834;-59
2021/10/22 03:21:42;;;;;;;;;;;;;;;14.83;68.88;100933.16;1049968;28;680;-59
2021/10/22 03:22:32;;;;;;;;;;;;;;;14.83;68.61;100931.34;1049787;28;629;-59
2021/10/22 03:23:22;;;;;;;;;;;;;;;14.83;68.52;100925.97;1049829;28;640;-59
2021/10/22 03:24:13;;;;;;;;;;;;;;;14.83;68.40;100925.97;1049971;28;798;-59
2021/10/22 03:25:03;;;;;;;;;;;;;;;14.83;68.98;100919.75;1049596;28;1469;-59
2021/10/22 03:25:54;;;;;;;;;;;;;;;14.81;68.35;100916.34;1048278;28;718;-59
2021/10/22 03:26:44;;;;;;;;;;;;;;;14.80;68.54;100926.22;1047861;28;1842;-60
2021/10/22 03:27:35;;;;;;;;;;;;;;;14.80;69.13;100915.47;1049838;28;719;-59
2021/10/22 03:28:25;;;;;;;;;;;;;;;14.78;68.79;100917.44;1049816;28;763;-59
2021/10/22 03:29:16;;;;;;;;;;;;;;;14.79;69.35;100923.66;1049804;28;847;-59
2021/10/22 03:30:06;;;;;;;;;;;;;;;14.77;68.72;100929.13;1049867;28;577;-59
2021/10/22 03:30:57;;;;;;;;;;;;;;;14.77;68.54;100921.09;1049940;28;701;-59
2021/10/22 03:31:47;;;;;;;;;;;;;;;14.78;68.36;100917.44;1049859;28;685;-59
2021/10/22 03:32:38;;;;;;;;;;;;;;;14.77;68.71;100920.25;1049793;28;625;-59
2021/10/22 03:33:28;;;;;;;;;;;;;;;14.76;68.43;100908.66;1049012;28;1976;-59
2021/10/22 03:34:18;;;;;;;;;;;;;;;14.77;68.49;100914.88;1049813;28;792;-59
2021/10/22 03:35:09;;;;;;;;;;;;;;;14.77;68.56;100913.03;1049549;28;1935;-59
2021/10/22 03:35:59;;;;;;;;;;;;;;;14.78;67.99;100916.59;1049854;28;625;-59
2021/10/22 03:36:50;;;;;;;;;;;;;;;14.78;68.28;100916.59;1045786;28;776;-59
2021/10/22 03:37:40;;;;;;;;;;;;;;;14.79;68.44;100913.78;1045765;28;789;-59
2021/10/22 03:38:31;;;;;;;;;;;;;;;14.77;68.39;100914.88;1045626;28;788;-59
2021/10/22 03:39:21;;;;;;;;;;;;;;;14.77;68.90;100910.34;1045522;28;839;-59
2021/10/22 03:40:12;;;;;;;;;;;;;;;14.76;68.82;100914.03;1045788;28;669;-59
2021/10/22 03:41:02;;;;;;;;;;;;;;;14.77;68.44;100913.03;1045643;28;748;-59
2021/10/22 03:41:52;;;;;;;;;;;;;;;14.77;68.76;100901.47;1044388;28;890;-59
2021/10/22 03:42:43;;;;;;;;;;;;;;;14.76;68.59;100903.28;1045698;28;633;-59
2021/10/22 03:43:35;;;;;;;;;;;;;;;14.78;68.30;100909.38;1045626;28;836;-59
2021/10/22 03:44:25;;;;;;;;;;;;;;;14.77;68.90;100907.69;1045621;28;633;-59
2021/10/22 03:45:16;;;;;;;;;;;;;;;14.76;68.61;100903.28;1048544;28;1917;-59
2021/10/22 03:46:06;;;;;;;;;;;;;;;14.75;68.81;100908.78;1048342;28;757;-59
2021/10/22 03:46:56;;;;;;;;;;;;;;;14.74;68.38;100902.56;1048735;28;617;-59
2021/10/22 03:47:47;;;;;;;;;;;;;;;14.75;68.55;100906.09;1047234;28;1713;-60
2021/10/22 03:48:37;;;;;;;;;;;;;;;14.73;68.40;100906.22;1048629;28;629;-59
2021/10/22 03:49:28;;;;;;;;;;;;;;;14.74;69.08;100905.25;1048418;28;630;-59
2021/10/22 03:50:19;;;;;;;;;;;;;;;14.73;68.34;100900.84;1048233;28;775;-59
2021/10/22 03:51:09;;;;;;;;;;;;;;;14.72;68.87;100896.47;1048655;28;713;-60
2021/10/22 03:52:00;;;;;;;;;;;;;;;14.72;68.23;100903.66;1048804;28;889;-59
2021/10/22 03:52:50;;;;;;;;;;;;;;;14.72;68.25;100898.28;1048488;28;1396;-59
2021/10/22 03:53:41;;;;;;;;;;;;;;;14.71;68.43;100908.16;1048676;28;1975;-59
2021/10/22 03:54:31;;;;;;;;;;;;;;;14.70;68.52;100906.47;1048477;28;866;-59
2021/10/22 03:55:22;;;;;;;;;;;;;;;14.70;68.15;100914.50;1048556;28;2006;-59
2021/10/22 03:56:12;;;;;;;;;;;;;;;14.71;68.67;100910.00;1049782;28;867;-60
2021/10/22 03:57:02;;;;;;;;;;;;;;;14.71;68.49;100916.22;1049798;28;691;-59
2021/10/22 03:57:53;;;;;;;;;;;;;;;14.70;68.65;100914.50;1049912;28;648;-59
2021/10/22 03:58:43;;;;;;;;;;;;;;;14.71;68.01;100918.91;1049853;28;955;-59
2021/10/22 03:59:34;;;;;;;;;;;;;;;14.71;68.57;100926.09;1049725;28;692;-59
2021/10/22 04:00:25;;;;;;;;;;;;;;;14.70;67.96;100919.88;1049668;28;784;-59
2021/10/22 04:01:15;;;;;;;;;;;;;;;14.70;68.02;100924.38;1050421;28;609;-59
2021/10/22 04:02:06;;;;;;;;;;;;;;;14.69;67.92;100931.56;1050595;28;711;-59
2021/10/22 04:02:56;;;;;;;;;;;;;;;14.69;68.59;100933.44;1050600;28;782;-59
2021/10/22 04:03:47;;;;;;;;;;;;;;;14.69;68.14;100933.44;1050507;28;629;-59
2021/10/22 04:04:37;;;;;;;;;;;;;;;14.68;68.66;100935.25;1050410;28;733;-59
2021/10/22 04:05:28;;;;;;;;;;;;;;;14.68;68.79;100937.94;1050316;28;1797;-59
2021/10/22 04:06:18;;;;;;;;;;;;;;;14.68;68.21;100940.63;1050597;28;657;-59
2021/10/22 04:07:10;;;;;;;;;;;;;;;14.68;67.86;100931.72;1050542;28;624;-59
2021/10/22 04:08:00;;;;;;;;;;;;;;;14.68;68.01;100937.94;1049857;28;961;-59
2021/10/22 04:08:51;;;;;;;;;;;;;;;14.68;68.54;100937.94;1050410;28;752;-59
2021/10/22 04:09:41;;;;;;;;;;;;;;;14.67;67.95;100941.59;1050421;28;680;-59
2021/10/22 04:10:32;;;;;;;;;;;;;;;14.67;68.01;100936.25;1050508;28;907;-59
2021/10/22 04:11:22;;;;;;;;;;;;;;;14.67;68.67;100938.06;1050496;28;711;-59
2021/10/22 04:12:13;;;;;;;;;;;;;;;14.67;68.42;100949.66;1050510;28;766;-59
2021/10/22 04:13:03;;;;;;;;;;;;;;;14.68;68.15;100942.47;1050509;28;704;-58
2021/10/22 04:13:54;;;;;;;;;;;;;;;14.67;68.03;100949.66;1049847;28;1898;-59
2021/10/22 04:14:45;;;;;;;;;;;;;;;14.67;68.84;100941.59;1050494;28;632;-59
2021/10/22 04:15:35;;;;;;;;;;;;;;;14.67;68.08;100952.34;1050389;28;633;-59
2021/10/22 04:16:26;;;;;;;;;;;;;;;14.67;68.57;100946.13;1049926;28;672;-59
2021/10/22 04:17:16;;;;;;;;;;;;;;;14.68;68.03;100947.81;1050464;28;723;-59
2021/10/22 04:18:07;;;;;;;;;;;;;;;14.66;68.18;100942.59;1050310;28;2074;-60
2021/10/22 04:18:57;;;;;;;;;;;;;;;14.67;68.42;100948.78;1050481;28;871;-59
2021/10/22 04:19:47;;;;;;;;;;;;;;;14.65;68.46;100943.56;1050580;28;791;-59
2021/10/22 04:20:38;;;;;;;;;;;;;;;14.65;68.55;100938.19;1050443;28;629;-59
2021/10/22 04:21:28;;;;;;;;;;;;;;;14.64;68.52;100941.84;1050296;28;853;-59
2021/10/22 04:22:19;;;;;;;;;;;;;;;14.64;68.10;100941.84;1050442;28;669;-59
2021/10/22 04:23:09;;;;;;;;;;;;;;;14.65;68.66;100942.69;1049589;28;1389;-59
2021/10/22 04:24:00;;;;;;;;;;;;;;;14.64;67.96;100947.22;1050498;28;720;-59
2021/10/22 04:24:50;;;;;;;;;;;;;;;14.65;68.45;100951.59;1050529;28;656;-59
2021/10/22 04:25:41;;;;;;;;;;;;;;;14.66;67.96;100949.78;1050408;28;668;-59